createdAt,value
2022-08-06T00:00:06.426Z,6.70
2022-08-06T00:05:06.549Z,7.00
2022-08-06T00:10:09.190Z,5.90
2022-08-06T00:15:14.466Z,11.60
2022-08-06T00:20:30.037Z,4.80
2022-08-06T00:25:35.573Z,5.10
2022-08-06T00:30:38.187Z,5.10
2022-08-06T00:35:40.230Z,6.10
2022-08-06T00:40:50.525Z,10.30
2022-08-06T00:46:00.673Z,6.80
2022-08-06T00:51:03.654Z,12.30
2022-08-06T00:56:08.939Z,5.70
2022-08-06T01:01:17.460Z,7.10
2022-08-06T01:06:53.928Z,10.60
2022-08-06T01:11:43.068Z,7.10
2022-08-06T01:21:59.509Z,6.10
2022-08-06T01:27:23.046Z,8.60
2022-08-06T01:32:42.730Z,7.30
2022-08-06T01:38:00.873Z,6.00
2022-08-06T01:43:22.798Z,8.40
2022-08-06T01:48:28.596Z,7.80
2022-08-06T01:54:05.910Z,9.40
2022-08-06T01:58:58.880Z,12.60
2022-08-06T02:04:01.338Z,13.40
2022-08-06T02:09:22.823Z,12.50
2022-08-06T02:14:29.916Z,14.40
2022-08-06T02:19:48.076Z,13.50
2022-08-06T02:25:02.661Z,14.80
2022-08-06T02:30:07.192Z,12.60
2022-08-06T02:35:10.063Z,8.10
2022-08-06T02:40:20.604Z,12.90
2022-08-06T02:45:58.516Z,12.20
2022-08-06T02:51:29.601Z,10.80
2022-08-06T02:56:29.689Z,10.70
2022-08-06T03:01:43.534Z,8.80
2022-08-06T03:06:47.459Z,8.30
2022-08-06T03:11:51.108Z,5.10
2022-08-06T03:16:57.680Z,3.70
2022-08-06T03:22:01.158Z,5.40
2022-08-06T03:27:07.762Z,7.50
2022-08-06T03:32:36.103Z,5.70
2022-08-06T03:37:59.523Z,8.60
2022-08-06T03:48:07.449Z,9.40
2022-08-06T03:53:28.834Z,4.30
2022-08-06T03:58:32.596Z,4.50
2022-08-06T04:03:39.905Z,3.20
2022-08-06T04:08:42.449Z,3.50
2022-08-06T04:14:07.643Z,2.80
2022-08-06T04:19:15.754Z,3.60
2022-08-06T04:24:18.148Z,4.10
2022-08-06T04:29:23.485Z,4.40
2022-08-06T04:34:28.532Z,4.60
2022-08-06T04:39:38.041Z,5.50
2022-08-06T04:44:56.010Z,7.40
2022-08-06T04:50:07.430Z,5.00
2022-08-06T04:55:24.216Z,5.10
2022-08-06T05:00:33.417Z,3.60
2022-08-06T05:05:40.486Z,3.50
2022-08-06T05:10:50.104Z,3.10
2022-08-06T05:15:56.166Z,3.90
2022-08-06T05:20:59.720Z,3.60
2022-08-06T05:26:02.236Z,4.10
2022-08-06T05:31:04.221Z,3.80
2022-08-06T05:36:11.936Z,6.30
2022-08-06T05:41:21.980Z,3.30
2022-08-06T05:46:25.720Z,3.10
2022-08-06T05:51:45.563Z,4.00
2022-08-06T05:56:53.695Z,4.10
2022-08-06T06:01:58.662Z,6.20
2022-08-06T06:07:08.801Z,4.30
2022-08-06T06:12:12.700Z,6.30
2022-08-06T06:17:38.953Z,4.50
2022-08-06T06:22:46.824Z,5.60
2022-08-06T06:28:12.642Z,5.00
2022-08-06T06:34:06.650Z,6.40
2022-08-06T06:39:25.901Z,7.00
2022-08-06T06:46:05.387Z,4.80
2022-08-06T06:50:31.041Z,4.60
2022-08-06T06:55:57.309Z,5.10
2022-08-06T07:01:11.709Z,5.80
2022-08-06T07:06:31.738Z,7.00
2022-08-06T07:12:02.327Z,4.60
2022-08-06T07:17:43.662Z,4.20
2022-08-06T07:22:26.289Z,4.60
2022-08-06T07:27:41.848Z,6.20
2022-08-06T07:32:49.409Z,6.80
2022-08-06T07:38:04.732Z,4.80
2022-08-06T07:43:23.878Z,5.20
2022-08-06T07:48:33.364Z,6.80
2022-08-06T07:53:52.492Z,6.50
2022-08-06T07:59:06.676Z,4.60
2022-08-06T08:04:34.276Z,4.00
2022-08-06T08:10:01.753Z,3.90
2022-08-06T08:15:19.185Z,3.70
2022-08-06T08:20:36.476Z,4.20
2022-08-06T08:25:50.735Z,3.40
2022-08-06T08:30:54.753Z,3.60
2022-08-06T08:36:00.726Z,5.20
2022-08-06T08:41:22.275Z,3.70
2022-08-06T08:46:31.117Z,2.50
2022-08-06T08:51:42.352Z,2.80
2022-08-06T08:57:09.689Z,2.20
2022-08-06T09:02:16.982Z,3.20
2022-08-06T09:07:25.817Z,6.00
2022-08-06T09:12:45.400Z,2.20
2022-08-06T09:18:26.198Z,2.80
2022-08-06T09:23:16.640Z,2.80
2022-08-06T09:28:41.238Z,2.60
2022-08-06T09:34:30.227Z,2.60
2022-08-06T09:39:59.932Z,2.50
2022-08-06T09:45:16.364Z,2.60
2022-08-06T09:50:37.236Z,3.10
2022-08-06T09:55:41.493Z,2.00
2022-08-06T10:00:50.883Z,2.40
2022-08-06T10:06:04.273Z,5.40
2022-08-06T10:11:07.711Z,2.30
2022-08-06T10:16:29.088Z,4.20
2022-08-06T10:21:41.121Z,2.40
2022-08-06T10:26:44.885Z,1.60
2022-08-06T10:31:52.917Z,1.70
2022-08-06T10:36:59.982Z,2.40
2022-08-06T10:42:16.378Z,3.50
2022-08-06T10:48:59.813Z,1.40
2022-08-06T10:52:49.635Z,2.00
2022-08-06T10:57:52.276Z,1.20
2022-08-06T11:03:18.388Z,1.10
2022-08-06T11:08:45.286Z,1.10
2022-08-06T11:14:18.970Z,3.20
2022-08-06T11:19:56.462Z,1.80
2022-08-06T11:25:00.094Z,1.00
2022-08-06T11:30:13.109Z,1.40
2022-08-06T11:35:49.132Z,3.40
2022-08-06T11:41:09.685Z,1.80
2022-08-06T11:46:35.638Z,1.90
2022-08-06T11:52:03.942Z,1.10
2022-08-06T11:57:11.797Z,2.30
2022-08-06T12:02:37.806Z,1.40
2022-08-06T12:07:48.618Z,1.10
2022-08-06T12:12:53.651Z,1.40
2022-08-06T12:18:19.038Z,6.20
2022-08-06T12:23:23.558Z,2.50
2022-08-06T12:28:51.048Z,1.50
2022-08-06T12:33:53.286Z,0.80
2022-08-06T12:38:59.696Z,2.00
2022-08-06T12:44:06.534Z,0.80
2022-08-06T12:49:10.316Z,0.60
2022-08-06T12:54:26.119Z,1.70
2022-08-06T12:59:29.172Z,4.10
2022-08-06T13:04:48.863Z,2.00
2022-08-06T13:10:16.922Z,1.90
2022-08-06T13:15:18.445Z,2.80
2022-08-06T13:20:41.986Z,0.90
2022-08-06T13:25:53.038Z,1.90
2022-08-06T13:30:57.747Z,2.50
2022-08-06T13:36:08.269Z,1.60
2022-08-06T13:41:37.280Z,0.80
2022-08-06T13:46:44.374Z,0.80
2022-08-06T13:51:55.455Z,1.30
2022-08-06T13:57:00.022Z,2.80
2022-08-06T14:02:03.841Z,3.50
2022-08-06T14:07:06.757Z,2.80
2022-08-06T14:12:13.128Z,0.80
2022-08-06T14:17:19.559Z,1.20
2022-08-06T14:22:26.212Z,1.70
2022-08-06T14:27:31.149Z,3.50
2022-08-06T14:32:45.907Z,0.50
2022-08-06T14:37:52.185Z,3.40
2022-08-06T14:43:17.289Z,0.70
2022-08-06T14:48:19.296Z,1.00
2022-08-06T14:53:22.340Z,2.60
2022-08-06T14:58:24.601Z,0.70
2022-08-06T15:03:33.927Z,0.90
2022-08-06T15:08:36.835Z,1.00
2022-08-06T15:13:51.431Z,2.00
2022-08-06T15:19:30.358Z,2.40
2022-08-06T15:24:18.463Z,1.50
2022-08-06T15:29:27.493Z,1.20
2022-08-06T15:34:37.876Z,0.80
2022-08-06T15:39:52.316Z,1.30
2022-08-06T15:44:58.025Z,2.30
2022-08-06T15:50:04.730Z,2.10
2022-08-06T15:55:14.981Z,0.60
2022-08-06T16:00:23.067Z,2.80
2022-08-06T16:05:32.606Z,1.50
2022-08-06T16:11:02.280Z,0.80
2022-08-06T16:16:16.679Z,1.50
2022-08-06T16:21:33.895Z,0.60
2022-08-06T16:26:41.937Z,1.70
2022-08-06T16:31:53.864Z,0.70
2022-08-06T16:36:59.960Z,1.60
2022-08-06T16:42:05.549Z,0.30
2022-08-06T16:47:08.275Z,0.30
2022-08-06T16:52:42.186Z,0.80
2022-08-06T16:57:39.651Z,0.80
2022-08-06T17:02:45.197Z,2.00
2022-08-06T17:07:53.898Z,1.50
2022-08-06T17:13:02.191Z,1.00
2022-08-06T17:18:05.982Z,1.60
2022-08-06T17:23:08.482Z,2.90
2022-08-06T17:28:14.138Z,0.40
2022-08-06T17:33:16.447Z,1.30
2022-08-06T17:38:19.209Z,4.10
2022-08-06T17:43:55.066Z,1.90
2022-08-06T17:48:46.097Z,2.30
2022-08-06T17:53:52.561Z,2.30
2022-08-06T17:59:10.904Z,2.30
2022-08-06T18:04:22.641Z,2.80
2022-08-06T18:10:11.114Z,0.70
2022-08-06T18:14:57.179Z,1.00
2022-08-06T18:20:01.828Z,0.80
2022-08-06T18:25:04.278Z,5.10
2022-08-06T18:30:30.188Z,0.90
2022-08-06T18:35:55.425Z,0.50
2022-08-06T18:41:05.716Z,3.30
2022-08-06T18:46:16.984Z,1.90
2022-08-06T18:51:40.979Z,1.00
2022-08-06T18:56:48.836Z,1.60
2022-08-06T19:01:52.078Z,1.70
2022-08-06T19:06:54.031Z,4.10
2022-08-06T19:11:57.760Z,0.70
2022-08-06T19:17:07.936Z,1.00
2022-08-06T19:22:10.517Z,0.90
2022-08-06T19:28:07.285Z,2.70
2022-08-06T19:32:49.281Z,2.70
2022-08-06T19:37:59.498Z,2.70
2022-08-06T19:44:25.673Z,4.50
2022-08-06T19:48:29.124Z,1.90
2022-08-06T19:53:32.757Z,3.10
2022-08-06T19:58:35.135Z,2.90
2022-08-06T20:03:39.836Z,2.40
2022-08-06T20:08:42.461Z,3.40
2022-08-06T20:13:44.357Z,15.10
2022-08-06T20:18:47.252Z,2.80
2022-08-06T20:23:53.356Z,3.10
2022-08-06T20:29:20.410Z,2.60
2022-08-06T20:34:29.076Z,4.00
2022-08-06T20:39:32.160Z,3.10
2022-08-06T20:44:36.416Z,2.70
2022-08-06T20:50:03.337Z,5.00
2022-08-06T20:55:01.916Z,2.70
2022-08-06T21:00:28.475Z,2.30
2022-08-06T21:05:38.069Z,2.90
2022-08-06T21:10:49.738Z,5.40
2022-08-06T21:16:05.503Z,1.10
2022-08-06T21:21:17.110Z,5.00
2022-08-06T21:26:25.264Z,5.10
2022-08-06T21:31:31.924Z,3.80
2022-08-06T21:36:34.322Z,8.40
2022-08-06T21:41:55.016Z,1.80
2022-08-06T21:47:00.163Z,1.70
2022-08-06T21:52:03.104Z,2.50
2022-08-06T21:57:12.139Z,1.40
2022-08-06T22:02:26.645Z,1.30
2022-08-06T22:08:06.611Z,4.80
2022-08-06T22:13:11.848Z,1.90
2022-08-06T22:18:18.945Z,1.20
2022-08-06T22:23:32.994Z,2.90
2022-08-06T22:28:41.195Z,1.90
2022-08-06T22:33:59.010Z,3.00
2022-08-06T22:39:07.399Z,4.70
2022-08-06T22:44:14.755Z,2.60
2022-08-06T22:49:36.917Z,2.30
2022-08-06T22:54:58.405Z,3.80
2022-08-06T23:00:10.956Z,5.00
2022-08-06T23:05:20.172Z,1.70
2022-08-06T23:15:39.407Z,1.50
2022-08-06T23:20:47.182Z,1.90
2022-08-06T23:26:00.167Z,2.40
2022-08-06T23:31:05.841Z,2.70
2022-08-06T23:36:08.045Z,4.50
2022-08-06T23:41:16.403Z,2.80
2022-08-06T23:46:28.090Z,2.80
2022-08-06T23:52:01.111Z,3.10
2022-08-06T23:56:57.654Z,2.60
